Time;durP1;ratioP1;P1;durP2;ratioP2;P2;SDS_P1;SDS_P2;PMS_P1;PMS_P2;Temp;Humidity;BMP_temperature;BMP_pressure;BME280_temperature;BME280_humidity;BME280_pressure;Samples;Min_cycle;Max_cycle;Signal;HPM_P1;HPM_P2
2021/09/01 00:00:14;;;;;;;7.13;5.68;;;;;;;14.98;65.85;101804.06;690917;28;22314;-67
2021/09/01 00:00:35;;;;;;;8.05;5.35;;;;;;;14.96;65.81;101804.25;690194;28;44435;-66
2021/09/01 00:00:57;;;;;;;7.03;5.40;;;;;;;14.96;65.51;101806.97;691587;28;23386;-67
2021/09/01 00:01:18;;;;;;;6.97;5.75;;;;;;;14.96;65.83;101801.53;691446;28;44985;-66
2021/09/01 00:01:39;;;;;;;9.05;6.30;;;;;;;14.93;65.84;101796.44;692392;28;24190;-66
2021/09/01 00:02:00;;;;;;;9.25;6.07;;;;;;;14.98;65.78;101806.78;691809;28;22421;-66
2021/09/01 00:02:22;;;;;;;7.65;5.53;;;;;;;14.97;65.72;101803.22;692099;28;21290;-67
2021/09/01 00:02:43;;;;;;;7.32;4.88;;;;;;;14.92;65.86;101806.50;690991;28;45227;-66
2021/09/01 00:03:04;;;;;;;7.07;4.80;;;;;;;14.97;65.82;101808.66;691562;28;23467;-67
2021/09/01 00:03:25;;;;;;;5.85;4.90;;;;;;;14.93;65.93;101797.28;691681;28;23475;-68
2021/09/01 00:03:47;;;;;;;6.22;4.60;;;;;;;14.96;65.82;101804.25;692293;28;23496;-66
2021/09/01 00:04:08;;;;;;;6.15;4.57;;;;;;;14.90;65.93;101794.09;691378;28;45277;-67
2021/09/01 00:04:29;;;;;;;5.97;5.00;;;;;;;14.94;65.84;101809.03;692465;28;22268;-66
2021/09/01 00:04:50;;;;;;;7.63;5.47;;;;;;;14.94;65.81;101803.59;692150;28;23478;-67
2021/09/01 00:05:12;;;;;;;8.20;5.38;;;;;;;14.92;65.69;101806.50;691986;28;22231;-66
2021/09/01 00:05:33;;;;;;;5.95;5.00;;;;;;;14.91;65.67;101807.50;690129;28;46393;-66
2021/09/01 00:05:55;;;;;;;5.45;4.90;;;;;;;14.90;65.79;101803.09;692084;28;23501;-67
2021/09/01 00:06:16;;;;;;;5.50;5.00;;;;;;;14.88;65.54;101796.16;691572;28;23260;-68
2021/09/01 00:06:38;;;;;;;5.57;4.93;;;;;;;14.88;65.91;101807.03;691224;28;44372;-67
2021/09/01 00:06:59;;;;;;;5.70;4.60;;;;;;;14.85;65.93;101799.22;691174;28;47241;-67
2021/09/01 00:07:20;;;;;;;5.55;4.60;;;;;;;14.85;65.97;101800.06;692229;28;23283;-67
2021/09/01 00:07:42;;;;;;;6.03;4.63;;;;;;;14.85;65.92;101805.50;687894;28;22359;-68
2021/09/01 00:08:04;;;;;;;6.00;4.57;;;;;;;14.84;66.14;101802.97;688684;28;47042;-66
2021/09/01 00:08:25;;;;;;;5.47;4.80;;;;;;;14.83;66.00;101804.84;689330;28;44721;-67
2021/09/01 00:08:51;;;;;;;5.82;4.65;;;;;;;14.79;66.30;101795.34;691617;28;21545;-66
2021/09/01 00:09:12;;;;;;;5.45;4.68;;;;;;;14.80;66.20;101801.66;687891;28;136423;-67
2021/09/01 00:09:34;;;;;;;5.18;4.68;;;;;;;14.80;66.32;101793.50;691985;28;22397;-67
2021/09/01 00:09:55;;;;;;;5.55;4.65;;;;;;;14.78;66.52;101799.94;691084;28;44395;-67
2021/09/01 00:10:16;;;;;;;6.82;4.85;;;;;;;14.78;66.33;101794.50;692269;28;22408;-68
2021/09/01 00:10:38;;;;;;;5.68;4.63;;;;;;;14.77;66.42;101803.69;692433;28;21606;-67
2021/09/01 00:11:00;;;;;;;5.15;4.65;;;;;;;14.78;66.38;101804.53;691690;28;45003;-66
2021/09/01 00:11:21;;;;;;;5.20;4.70;;;;;;;14.77;66.59;101800.13;692391;28;21200;-66
2021/09/01 00:11:43;;;;;;;5.07;4.53;;;;;;;14.77;66.62;101802.84;691030;28;46382;-66
2021/09/01 00:12:06;;;;;;;6.07;4.70;;;;;;;14.76;66.67;101799.28;690425;28;45176;-68
2021/09/01 00:12:28;;;;;;;5.90;4.93;;;;;;;14.77;66.58;101806.41;692748;28;13542;-67
2021/09/01 00:12:49;;;;;;;6.65;5.43;;;;;;;14.77;66.59;101803.69;692100;28;22422;-66
2021/09/01 00:13:10;;;;;;;5.87;5.30;;;;;;;14.77;66.71;101802.84;690389;28;45282;-67
2021/09/01 00:13:32;;;;;;;5.57;4.80;;;;;;;14.78;66.54;101805.38;691390;28;46326;-67
2021/09/01 00:13:53;;;;;;;6.28;5.03;;;;;;;14.79;66.75;101808.94;691510;28;46366;-66
2021/09/01 00:14:14;;;;;;;8.18;5.00;;;;;;;14.80;66.79;101802.47;692360;28;21569;-67
2021/09/01 00:14:35;;;;;;;6.80;5.10;;;;;;;14.80;66.40;101804.38;692435;28;22234;-66
2021/09/01 00:14:57;;;;;;;5.85;5.03;;;;;;;14.78;66.66;101802.66;691990;28;22420;-66
2021/09/01 00:15:18;;;;;;;7.03;5.00;;;;;;;14.79;66.67;101806.22;691149;28;46313;-66
2021/09/01 00:15:39;;;;;;;5.07;4.40;;;;;;;14.77;66.62;101803.69;691907;28;22411;-66
2021/09/01 00:16:01;;;;;;;5.38;4.63;;;;;;;14.79;66.52;101798.06;692015;28;22618;-66
2021/09/01 00:16:31;;;;;;;6.43;5.10;;;;;;;14.75;66.46;101794.84;691975;28;22420;-66
2021/09/01 00:16:52;;;;;;;7.60;5.45;;;;;;;14.75;66.67;101802.19;688122;28;138203;-66
2021/09/01 00:17:13;;;;;;;6.65;5.35;;;;;;;14.80;66.55;101805.19;691546;28;22405;-66
2021/09/01 00:17:36;;;;;;;5.95;4.90;;;;;;;14.76;66.58;101796.56;691908;28;23456;-67
2021/09/01 00:17:58;;;;;;;6.15;5.18;;;;;;;14.78;66.80;101802.66;691557;28;38630;-66
2021/09/01 00:18:19;;;;;;;6.70;5.40;;;;;;;14.78;66.63;101805.38;690698;28;45020;-66
2021/09/01 00:18:40;;;;;;;5.60;4.85;;;;;;;14.75;66.76;101800.28;692052;28;23482;-69
2021/09/01 00:19:04;;;;;;;5.10;4.60;;;;;;;14.78;66.78;101812.69;692076;28;21551;-65
2021/09/01 00:19:26;;;;;;;5.85;4.53;;;;;;;14.76;66.80;101803.84;689129;28;92143;-66
2021/09/01 00:19:47;;;;;;;5.53;4.75;;;;;;;14.76;66.61;101803.84;690281;28;45255;-67
2021/09/01 00:20:10;;;;;;;5.90;4.63;;;;;;;14.77;66.66;101808.28;691916;28;22300;-66
2021/09/01 00:20:31;;;;;;;5.10;4.70;;;;;;;14.75;66.46;101808.47;690483;28;69402;-65
2021/09/01 00:20:53;;;;;;;5.72;5.13;;;;;;;14.75;66.57;101800.28;691936;28;22288;-67
2021/09/01 00:21:14;;;;;;;5.50;5.00;;;;;;;14.72;66.66;101802.53;691350;28;44399;-68
2021/09/01 00:21:36;;;;;;;5.50;4.80;;;;;;;14.75;66.92;101805.72;692219;28;22408;-68
2021/09/01 00:21:57;;;;;;;6.45;4.75;;;;;;;14.74;66.75;101805.91;690704;28;46304;-66
2021/09/01 00:22:18;;;;;;;6.20;4.70;;;;;;;14.73;66.95;101804.22;692197;28;23428;-68
2021/09/01 00:22:40;;;;;;;7.18;5.15;;;;;;;14.71;66.64;101801.66;692352;28;23483;-66
2021/09/01 00:23:01;;;;;;;7.63;5.07;;;;;;;14.72;67.13;101802.53;691263;28;45249;-66
2021/09/01 00:23:22;;;;;;;5.75;5.15;;;;;;;14.75;67.00;101807.63;688441;28;23480;-67
2021/09/01 00:23:43;;;;;;;5.63;4.97;;;;;;;14.73;66.86;101810.50;689298;28;22252;-66
2021/09/01 00:24:07;;;;;;;5.88;5.05;;;;;;;14.73;66.94;101799.63;689191;28;21559;-68
2021/09/01 00:24:28;;;;;;;5.60;5.00;;;;;;;14.74;67.08;101808.63;686717;28;93119;-67
2021/09/01 00:24:49;;;;;;;6.43;5.00;;;;;;;14.71;67.00;101798.13;689734;28;23425;-67
2021/09/01 00:25:11;;;;;;;5.50;5.00;;;;;;;14.73;67.11;101812.38;691565;28;23545;-66
2021/09/01 00:25:33;;;;;;;6.63;5.38;;;;;;;14.67;67.01;101797.63;691610;28;44412;-66
2021/09/01 00:25:54;;;;;;;5.88;5.32;;;;;;;14.74;67.32;101809.47;691660;28;45445;-66
2021/09/01 00:26:15;;;;;;;6.28;5.38;;;;;;;14.74;67.42;101804.03;691744;28;23403;-66
2021/09/01 00:26:36;;;;;;;6.22;5.40;;;;;;;14.74;67.11;101806.75;691564;28;21552;-68
2021/09/01 00:26:58;;;;;;;6.15;5.55;;;;;;;14.75;67.21;101811.19;691723;28;21667;-66
2021/09/01 00:27:19;;;;;;;6.50;5.57;;;;;;;14.79;67.54;101817.09;690862;28;46332;-66
2021/09/01 00:27:40;;;;;;;5.90;5.35;;;;;;;14.81;67.35;101806.91;690935;28;22390;-67
2021/09/01 00:28:02;;;;;;;6.28;5.68;;;;;;;14.80;67.34;101807.91;692928;28;865;-66
2021/09/01 00:28:24;;;;;;;5.97;5.40;;;;;;;14.83;67.56;101813.00;691826;28;21538;-68
2021/09/01 00:28:45;;;;;;;6.50;5.90;;;;;;;14.84;67.60;101814.69;691231;28;45153;-67
2021/09/01 00:29:06;;;;;;;6.28;5.68;;;;;;;14.85;67.48;101813.66;692174;28;22414;-67
2021/09/01 00:29:27;;;;;;;6.40;5.78;;;;;;;14.87;67.37;101810.75;692364;28;22426;-67
2021/09/01 00:29:49;;;;;;;7.68;5.35;;;;;;;14.88;67.57;101815.19;691704;28;22179;-65
2021/09/01 00:30:10;;;;;;;6.32;5.20;;;;;;;14.89;67.47;101816.84;690567;28;46154;-67
2021/09/01 00:30:32;;;;;;;5.57;5.07;;;;;;;14.89;67.28;101816.84;691097;28;45079;-66
2021/09/01 00:30:53;;;;;;;6.38;5.38;;;;;;;14.89;67.28;101823.16;691925;28;22229;-66
2021/09/01 00:31:15;;;;;;;7.55;5.88;;;;;;;14.90;67.32;101811.25;692253;28;21516;-66
2021/09/01 00:31:37;;;;;;;6.40;5.80;;;;;;;14.92;67.55;101805.63;691237;28;44415;-66
2021/09/01 00:31:58;;;;;;;6.28;5.68;;;;;;;14.93;67.53;101810.03;689809;28;69747;-67
2021/09/01 00:32:19;;;;;;;6.53;5.60;;;;;;;14.93;67.53;101819.03;692139;28;23406;-66
2021/09/01 00:32:41;;;;;;;6.05;5.40;;;;;;;14.95;67.43;101817.00;692080;28;23430;-68
2021/09/01 00:33:02;;;;;;;7.35;5.40;;;;;;;14.96;67.20;101813.25;692172;28;21539;-67
2021/09/01 00:33:24;;;;;;;8.00;5.50;;;;;;;14.94;67.29;101814.47;692036;28;22417;-66
2021/09/01 00:33:45;;;;;;;5.95;5.38;;;;;;;14.93;67.28;101807.31;690372;28;44654;-66
2021/09/01 00:34:07;;;;;;;6.40;5.28;;;;;;;14.95;67.29;101817.00;691218;28;45366;-67
2021/09/01 00:34:28;;;;;;;7.30;5.53;;;;;;;14.96;67.35;101818.69;692282;28;23277;-66
2021/09/01 00:34:49;;;;;;;6.75;5.38;;;;;;;14.97;67.44;101816.84;692145;28;22396;-67
2021/09/01 00:35:11;;;;;;;6.47;5.32;;;;;;;14.96;67.43;101817.84;691853;28;22190;-66
2021/09/01 00:35:32;;;;;;;6.00;5.40;;;;;;;14.98;67.29;101818.50;690826;28;46319;-67
2021/09/01 00:35:53;;;;;;;6.15;5.55;;;;;;;14.98;67.44;101813.06;692472;28;21516;-66
2021/09/01 00:36:15;;;;;;;6.15;5.28;;;;;;;14.96;67.52;101807.81;692343;28;22569;-66
2021/09/01 00:36:37;;;;;;;7.75;5.70;;;;;;;15.00;67.55;101816.47;691426;28;46403;-65
2021/09/01 00:36:58;;;;;;;7.78;5.78;;;;;;;15.01;67.42;101812.72;690352;28;45305;-65
2021/09/01 00:37:19;;;;;;;6.47;5.63;;;;;;;15.02;67.47;101813.56;691984;28;23566;-66
2021/09/01 00:37:41;;;;;;;5.88;5.28;;;;;;;15.03;67.48;101818.84;690664;28;22456;-69
2021/09/01 00:38:02;;;;;;;6.88;5.50;;;;;;;15.01;67.49;101814.59;690500;28;44383;-67
2021/09/01 00:38:23;;;;;;;5.88;5.25;;;;;;;15.00;67.25;101812.88;691321;28;46137;-66
2021/09/01 00:38:45;;;;;;;6.63;5.57;;;;;;;15.00;67.30;101812.88;692446;28;22446;-67
2021/09/01 00:39:08;;;;;;;6.47;5.72;;;;;;;15.01;67.41;101820.03;691522;28;22412;-65
2021/09/01 00:39:29;;;;;;;5.97;5.40;;;;;;;15.01;67.27;101826.31;690631;28;69226;-66
2021/09/01 00:39:50;;;;;;;6.10;5.50;;;;;;;15.00;67.19;101821.03;692361;28;22165;-66
2021/09/01 00:40:12;;;;;;;6.05;5.38;;;;;;;15.00;67.47;101824.63;691956;28;22227;-67
2021/09/01 00:40:34;;;;;;;6.22;5.50;;;;;;;14.99;67.36;101820.22;691714;28;46297;-66
2021/09/01 00:40:56;;;;;;;6.10;5.35;;;;;;;14.99;67.35;101812.03;691745;28;45247;-66
2021/09/01 00:41:17;;;;;;;7.30;5.53;;;;;;;15.00;67.39;101821.03;691263;28;46621;-66
2021/09/01 00:41:38;;;;;;;6.10;5.47;;;;;;;14.97;67.57;101816.84;691572;28;23470;-66
2021/09/01 00:42:00;;;;;;;6.25;5.65;;;;;;;15.00;67.45;101818.31;691497;28;22420;-68
2021/09/01 00:42:21;;;;;;;6.30;5.70;;;;;;;15.00;67.48;101824.63;691686;28;44393;-67
2021/09/01 00:42:43;;;;;;;6.95;5.43;;;;;;;14.96;67.62;101815.13;692458;28;22406;-65
2021/09/01 00:43:05;;;;;;;6.00;5.40;;;;;;;14.98;67.80;101821.22;691321;28;44390;-67
2021/09/01 00:43:27;;;;;;;6.20;5.60;;;;;;;14.98;67.62;101815.78;691261;28;22525;-66
2021/09/01 00:43:49;;;;;;;6.93;5.70;;;;;;;14.98;67.81;101821.22;690704;28;69359;-66
2021/09/01 00:44:18;;;;;;;6.18;5.53;;;;;;;14.96;67.92;101813.25;691436;28;47366;-65
2021/09/01 00:44:40;;;;;;;6.93;5.25;;;;;;;14.96;67.73;101821.41;688309;28;137968;-67
2021/09/01 00:45:02;;;;;;;7.15;5.20;;;;;;;14.98;67.63;101821.22;690327;28;46470;-66
2021/09/01 00:45:23;;;;;;;7.65;5.72;;;;;;;14.96;67.86;101812.41;691090;28;44146;-68
2021/09/01 00:45:48;;;;;;;6.60;6.00;;;;;;;14.99;67.83;101820.22;692258;28;23434;-66
2021/09/01 00:46:09;;;;;;;6.65;5.95;;;;;;;14.97;67.75;101819.56;689038;28;115091;-67
2021/09/01 00:46:31;;;;;;;6.53;5.57;;;;;;;14.99;67.69;101819.38;692412;28;23539;-66
2021/09/01 00:46:52;;;;;;;6.35;5.70;;;;;;;14.99;67.79;101824.81;690948;28;45296;-65
2021/09/01 00:47:15;;;;;;;6.93;6.10;;;;;;;14.98;67.73;101823.09;691986;28;22399;-67
2021/09/01 00:47:37;;;;;;;6.43;5.80;;;;;;;14.96;67.99;101824.13;689420;28;69401;-66
2021/09/01 00:47:58;;;;;;;9.35;5.78;;;;;;;14.97;68.00;101816.84;690463;28;67531;-67
2021/09/01 00:48:21;;;;;;;10.32;6.10;;;;;;;14.93;68.13;101808.16;691618;28;22385;-67
2021/09/01 00:48:42;;;;;;;6.82;5.43;;;;;;;14.96;67.94;101818.69;691438;28;46425;-66
2021/09/01 00:49:04;;;;;;;6.15;5.50;;;;;;;14.96;68.19;101817.84;691524;28;46298;-68
2021/09/01 00:49:26;;;;;;;6.05;5.50;;;;;;;14.98;68.11;101820.38;691607;28;46447;-66
2021/09/01 00:49:47;;;;;;;6.57;5.63;;;;;;;14.98;68.11;101817.66;692621;28;21316;-66
2021/09/01 00:50:09;;;;;;;6.50;5.85;;;;;;;14.96;68.11;101813.25;691480;28;45481;-67
2021/09/01 00:50:32;;;;;;;6.38;5.65;;;;;;;14.97;68.28;101819.56;692008;28;45244;-66
2021/09/01 00:50:54;;;;;;;7.10;5.80;;;;;;;14.97;68.03;101819.56;691968;28;44282;-66
2021/09/01 00:51:16;;;;;;;6.85;6.05;;;;;;;14.96;68.19;101820.56;691124;28;70045;-68
2021/09/01 00:51:37;;;;;;;6.72;5.97;;;;;;;14.97;68.22;101822.28;692323;28;22401;-66
2021/09/01 00:52:00;;;;;;;7.78;6.07;;;;;;;14.96;68.03;101817.84;691422;28;46286;-67
2021/09/01 00:52:22;;;;;;;7.18;5.60;;;;;;;14.99;68.19;101819.38;691423;28;67520;-67
2021/09/01 00:52:43;;;;;;;7.25;5.32;;;;;;;14.99;68.16;101816.66;693066;28;19387;-67
2021/09/01 00:53:05;;;;;;;7.80;5.80;;;;;;;15.00;68.21;101824.63;692138;28;46268;-67
2021/09/01 00:53:27;;;;;;;6.65;5.80;;;;;;;15.00;68.34;101821.03;692042;28;23472;-66
2021/09/01 00:53:50;;;;;;;5.97;5.43;;;;;;;15.01;67.95;101820.03;691855;28;45258;-66
2021/09/01 00:54:15;;;;;;;6.57;5.47;;;;;;;14.99;67.84;101820.22;690203;28;92368;-67
2021/09/01 00:54:37;;;;;;;7.35;5.95;;;;;;;14.99;67.95;101813.94;689036;28;137958;-65
2021/09/01 00:55:00;;;;;;;6.07;5.50;;;;;;;15.00;67.81;101818.31;691517;28;46510;-65
2021/09/01 00:55:23;;;;;;;6.10;5.50;;;;;;;15.00;68.09;101821.91;691468;28;44537;-66
2021/09/01 00:55:45;;;;;;;5.57;5.07;;;;;;;14.97;67.98;101819.56;690594;28;67526;-66
2021/09/01 00:56:08;;;;;;;5.85;5.32;;;;;;;15.01;67.81;101818.16;691254;28;69501;-64
2021/09/01 00:56:29;;;;;;;6.30;5.70;;;;;;;15.00;68.11;101812.88;691808;28;46206;-64
2021/09/01 00:56:53;;;;;;;6.53;5.82;;;;;;;15.02;68.04;101822.56;692110;28;21961;-68
2021/09/01 00:57:14;;;;;;;6.50;5.80;;;;;;;15.01;68.04;101812.72;689951;28;93367;-67
2021/09/01 00:57:38;;;;;;;6.65;5.75;;;;;;;15.00;67.97;101810.16;692001;28;22410;-69
2021/09/01 00:58:00;;;;;;;6.68;5.60;;;;;;;15.03;68.08;101817.97;689976;28;90560;-69
2021/09/01 00:58:22;;;;;;;6.75;5.53;;;;;;;15.03;67.86;101818.84;692661;28;19174;-66
2021/09/01 00:58:45;;;;;;;6.47;5.70;;;;;;;15.02;68.12;101814.41;692081;28;44439;-66
2021/09/01 00:59:06;;;;;;;6.90;6.20;;;;;;;15.03;68.02;101820.69;691098;28;69482;-67
2021/09/01 00:59:29;;;;;;;6.80;6.10;;;;;;;15.03;68.08;101818.84;692941;28;21613;-67
2021/09/01 00:59:50;;;;;;;7.80;6.07;;;;;;;15.04;68.05;101817.78;691029;28;69102;-65
2021/09/01 01:00:20;;;;;;;7.03;6.10;;;;;;;15.04;67.95;101820.50;692003;28;22403;-69
2021/09/01 01:00:52;;;;;;;6.60;6.00;;;;;;;15.03;67.97;101812.53;691042;28;138520;-66
2021/09/01 01:01:16;;;;;;;6.32;5.63;;;;;;;15.03;67.82;101815.25;691282;28;137872;-68
2021/09/01 01:01:37;;;;;;;6.82;6.10;;;;;;;15.02;67.87;101814.41;692261;28;92310;-65
2021/09/01 01:01:59;;;;;;;6.78;5.90;;;;;;;15.01;67.98;101820.88;695253;28;23461;-66
2021/09/01 01:02:22;;;;;;;6.40;5.80;;;;;;;14.98;68.17;101815.78;694626;28;45377;-66
2021/09/01 01:02:45;;;;;;;6.32;5.72;;;;;;;15.00;67.93;101816.47;690721;28;90385;-67
2021/09/01 01:03:06;;;;;;;6.78;5.80;;;;;;;14.98;67.83;101812.22;691914;28;46168;-67
2021/09/01 01:03:27;;;;;;;6.82;5.85;;;;;;;14.99;68.10;101811.22;692282;28;21534;-66
2021/09/01 01:03:49;;;;;;;6.57;5.90;;;;;;;14.98;68.17;101821.22;692260;28;21484;-67
2021/09/01 01:04:11;;;;;;;8.30;5.97;;;;;;;14.96;68.01;101817.84;692367;28;23346;-66
2021/09/01 01:04:33;;;;;;;7.93;5.68;;;;;;;14.94;68.09;101815.31;690854;28;68380;-67
2021/09/01 01:04:54;;;;;;;7.35;6.15;;;;;;;14.95;68.00;101816.16;692544;28;21544;-67
2021/09/01 01:05:15;;;;;;;9.02;6.30;;;;;;;14.92;68.10;101811.06;691996;28;22396;-66
2021/09/01 01:05:37;;;;;;;7.03;6.22;;;;;;;14.92;68.29;101816.50;692502;28;22583;-67
2021/09/01 01:05:58;;;;;;;6.30;5.70;;;;;;;14.84;68.26;101803.78;692186;28;44218;-67
2021/09/01 01:06:21;;;;;;;6.13;5.53;;;;;;;14.91;68.34;101820.28;691528;28;44395;-66
2021/09/01 01:06:44;;;;;;;6.63;6.00;;;;;;;14.91;68.42;101817.53;690882;28;69424;-66
2021/09/01 01:07:06;;;;;;;7.00;6.35;;;;;;;14.90;68.54;101813.13;691715;28;45270;-67
2021/09/01 01:07:27;;;;;;;7.90;6.30;;;;;;;14.89;68.62;101809.56;691238;28;67500;-66
2021/09/01 01:07:48;;;;;;;6.55;5.93;;;;;;;14.90;68.69;101813.13;691404;28;22414;-67
2021/09/01 01:08:11;;;;;;;6.63;6.03;;;;;;;14.90;68.70;101816.69;692777;28;23729;-66
2021/09/01 01:08:32;;;;;;;6.63;5.93;;;;;;;14.90;68.78;101810.41;690111;28;70047;-66
2021/09/01 01:08:53;;;;;;;6.40;5.80;;;;;;;14.88;68.40;101810.59;692978;28;21197;-66
2021/09/01 01:09:17;;;;;;;7.93;5.95;;;;;;;14.88;68.64;101807.03;692605;28;21367;-68
2021/09/01 01:09:39;;;;;;;7.68;6.03;;;;;;;14.89;68.67;101814.13;690580;28;69334;-67
2021/09/01 01:10:00;;;;;;;6.20;5.60;;;;;;;14.85;68.43;101805.50;691867;28;44436;-67
2021/09/01 01:10:21;;;;;;;7.53;6.00;;;;;;;14.85;68.51;101805.50;692337;28;22437;-66
2021/09/01 01:10:45;;;;;;;7.00;6.13;;;;;;;14.88;68.54;101807.03;690942;28;69513;-66
2021/09/01 01:11:11;;;;;;;7.80;6.05;;;;;;;14.88;68.81;101812.47;691122;28;69177;-67
2021/09/01 01:11:33;;;;;;;7.85;5.60;;;;;;;14.86;68.61;101814.50;688140;28;137907;-67
2021/09/01 01:12:07;;;;;;;6.40;5.80;;;;;;;14.85;68.50;101807.38;690970;28;45466;-68
2021/09/01 01:12:28;;;;;;;6.30;5.70;;;;;;;14.88;68.62;101813.31;688789;28;136044;-68
2021/09/01 01:12:49;;;;;;;7.57;6.00;;;;;;;14.87;68.87;101811.59;692473;28;22414;-66
2021/09/01 01:13:14;;;;;;;7.65;6.22;;;;;;;14.87;68.57;101814.31;692769;28;21471;-68
2021/09/01 01:13:36;;;;;;;7.32;5.97;;;;;;;14.86;68.52;101807.22;688454;28;138037;-67
2021/09/01 01:13:57;;;;;;;6.80;6.03;;;;;;;14.88;68.54;101807.03;691903;28;44394;-66
2021/09/01 01:14:18;;;;;;;8.23;6.35;;;;;;;14.88;68.62;101807.03;691839;28;47098;-66
2021/09/01 01:14:42;;;;;;;7.20;6.45;;;;;;;14.86;68.62;101809.94;692943;28;21567;-66
2021/09/01 01:15:04;;;;;;;8.68;6.22;;;;;;;14.87;68.57;101808.88;690333;28;92149;-66
2021/09/01 01:15:25;;;;;;;7.63;6.20;;;;;;;14.83;68.74;101801.25;691909;28;21494;-66
2021/09/01 01:15:46;;;;;;;6.85;6.15;;;;;;;14.87;68.69;101819.75;692118;28;43740;-67
2021/09/01 01:16:08;;;;;;;6.72;5.90;;;;;;;14.85;68.81;101810.09;692829;28;22412;-66
2021/09/01 01:16:30;;;;;;;6.72;6.05;;;;;;;14.85;68.83;101813.66;691941;28;46420;-66
2021/09/01 01:16:51;;;;;;;7.45;6.25;;;;;;;14.83;68.90;101807.56;692343;28;22433;-67
2021/09/01 01:17:15;;;;;;;6.53;5.93;;;;;;;14.85;68.68;101813.66;692559;28;22381;-68
2021/09/01 01:17:37;;;;;;;7.00;5.90;;;;;;;14.84;68.59;101814.69;689716;28;92302;-66
2021/09/01 01:17:58;;;;;;;7.45;6.10;;;;;;;14.83;68.81;101814.84;691910;28;44213;-66
2021/09/01 01:18:19;;;;;;;7.20;6.05;;;;;;;14.82;68.79;101815.91;692104;28;22422;-65
2021/09/01 01:18:41;;;;;;;6.70;5.90;;;;;;;14.81;68.76;101812.34;692217;28;22141;-68
2021/09/01 01:19:03;;;;;;;6.88;6.07;;;;;;;14.78;68.85;101813.53;692172;28;46569;-66
2021/09/01 01:19:24;;;;;;;6.72;5.80;;;;;;;14.77;68.84;101813.72;691957;28;44294;-66
2021/09/01 01:19:46;;;;;;;7.00;5.80;;;;;;;14.77;68.87;101813.72;692622;28;22410;-66
2021/09/01 01:20:09;;;;;;;6.20;5.68;;;;;;;14.75;68.86;101819.34;691046;28;47450;-66
2021/09/01 01:20:30;;;;;;;6.50;5.90;;;;;;;14.74;69.11;101812.19;690627;28;67161;-68
2021/09/01 01:20:52;;;;;;;6.55;5.95;;;;;;;14.73;68.96;101818.66;692196;28;22318;-66
2021/09/01 01:21:15;;;;;;;6.82;6.15;;;;;;;14.72;68.92;101816.97;691945;28;45232;-66
2021/09/01 01:21:37;;;;;;;7.60;5.97;;;;;;;14.72;69.14;101819.69;692169;28;23671;-67
2021/09/01 01:21:58;;;;;;;7.75;6.07;;;;;;;14.71;69.22;101823.41;691490;28;45301;-66
2021/09/01 01:22:20;;;;;;;8.30;5.95;;;;;;;14.71;69.05;101815.25;692873;28;21602;-66
2021/09/01 01:22:41;;;;;;;7.03;6.32;;;;;;;14.71;69.28;101823.41;691605;28;46348;-66
2021/09/01 01:23:04;;;;;;;8.20;6.53;;;;;;;14.71;69.39;101814.44;692450;28;23777;-68
2021/09/01 01:23:25;;;;;;;9.27;6.40;;;;;;;14.71;69.17;101815.25;691549;28;45171;-67
2021/09/01 01:23:48;;;;;;;6.65;5.95;;;;;;;14.69;69.33;101816.50;692287;28;22362;-66
2021/09/01 01:24:10;;;;;;;6.90;6.28;;;;;;;14.68;69.21;101815.63;689855;28;92331;-66
2021/09/01 01:24:50;;;;;;;7.18;6.47;;;;;;;14.69;69.22;101819.22;692049;28;46335;-66
2021/09/01 01:25:29;;;;;;;7.07;6.38;;;;;;;14.69;69.63;101817.31;687819;28;135963;-67
2021/09/01 01:25:51;;;;;;;6.93;6.22;;;;;;;14.67;69.38;101818.50;688038;28;161399;-65
2021/09/01 01:26:12;;;;;;;8.75;6.32;;;;;;;14.67;69.48;101823.94;691023;28;69721;-66
2021/09/01 01:26:33;;;;;;;8.32;6.22;;;;;;;14.68;69.48;101822.94;692882;28;22442;-66
2021/09/01 01:26:55;;;;;;;6.97;5.90;;;;;;;14.67;69.60;101818.50;692534;28;23457;-67
2021/09/01 01:27:22;;;;;;;6.97;6.28;;;;;;;14.67;69.53;101819.38;691955;28;46426;-68
2021/09/01 01:27:44;;;;;;;7.05;6.45;;;;;;;14.67;69.59;101811.22;687714;28;137765;-66
2021/09/01 01:28:07;;;;;;;7.35;6.65;;;;;;;14.68;69.71;101821.06;691185;28;47208;-66
2021/09/01 01:28:28;;;;;;;6.85;6.18;;;;;;;14.68;69.62;101812.91;690806;28;69452;-67
2021/09/01 01:28:51;;;;;;;6.85;6.15;;;;;;;14.69;69.60;101820.03;692808;28;21535;-66
2021/09/01 01:29:12;;;;;;;8.00;6.22;;;;;;;14.68;69.86;101815.63;690756;28;68432;-68
2021/09/01 01:29:35;;;;;;;8.00;6.55;;;;;;;14.70;69.80;101819.03;692226;28;22485;-67
2021/09/01 01:29:58;;;;;;;8.27;6.70;;;;;;;14.70;69.57;101821.75;691812;28;45270;-67
2021/09/01 01:30:21;;;;;;;7.05;6.35;;;;;;;14.69;69.75;101820.03;689585;28;69445;-67
2021/09/01 01:30:43;;;;;;;7.43;6.50;;;;;;;14.69;69.62;101820.03;689929;28;69485;-64
2021/09/01 01:31:05;;;;;;;7.32;6.55;;;;;;;14.69;69.81;101816.50;687744;28;69037;-68
2021/09/01 01:31:26;;;;;;;7.40;6.70;;;;;;;14.69;69.85;101817.31;689944;28;20881;-66
2021/09/01 01:31:47;;;;;;;7.68;6.88;;;;;;;14.69;69.99;101814.59;689501;28;45653;-66
2021/09/01 01:32:08;;;;;;;7.30;6.60;;;;;;;14.68;69.93;101815.63;692646;28;22059;-67
2021/09/01 01:32:31;;;;;;;8.02;6.10;;;;;;;14.69;69.72;101816.50;692316;28;22418;-66
2021/09/01 01:32:53;;;;;;;8.02;6.75;;;;;;;14.67;69.85;101816.66;691333;28;45158;-66
2021/09/01 01:33:14;;;;;;;8.55;7.03;;;;;;;14.66;70.01;101811.41;691965;28;46316;-66
2021/09/01 01:33:36;;;;;;;7.40;6.70;;;;;;;14.67;70.18;101811.22;692200;28;21561;-67
2021/09/01 01:33:59;;;;;;;8.60;6.75;;;;;;;14.67;70.03;101818.50;691777;28;46385;-66
2021/09/01 01:34:20;;;;;;;9.98;7.28;;;;;;;14.67;69.88;101811.22;690954;28;70383;-66
2021/09/01 01:34:41;;;;;;;7.85;7.00;;;;;;;14.64;70.11;101808.00;692766;28;22402;-67
2021/09/01 01:35:02;;;;;;;7.40;6.65;;;;;;;14.67;69.97;101816.66;692537;28;21533;-66
2021/09/01 01:35:25;;;;;;;7.25;6.55;;;;;;;14.66;70.13;101814.97;692174;28;23308;-66
2021/09/01 01:35:47;;;;;;;8.40;6.80;;;;;;;14.67;70.05;101819.38;691129;28;69376;-66
2021/09/01 01:36:08;;;;;;;7.45;6.70;;;;;;;14.66;70.25;101809.53;691640;28;45274;-67
2021/09/01 01:36:30;;;;;;;7.65;6.85;;;;;;;14.66;70.05;101814.13;692214;28;23385;-66
2021/09/01 01:36:51;;;;;;;7.93;6.53;;;;;;;14.66;70.27;101812.25;691398;28;46409;-66
2021/09/01 01:37:12;;;;;;;7.82;6.35;;;;;;;14.64;70.25;101806.16;692481;28;21339;-67
2021/09/01 01:37:34;;;;;;;7.75;6.30;;;;;;;14.67;70.02;101819.38;692771;28;15165;-68
2021/09/01 01:37:56;;;;;;;7.20;6.50;;;;;;;14.67;70.11;101813.06;691650;28;23660;-68
2021/09/01 01:38:19;;;;;;;7.50;6.70;;;;;;;14.65;70.39;101815.97;690599;28;69442;-66
2021/09/01 01:38:40;;;;;;;7.50;6.60;;;;;;;14.66;70.05;101814.97;689835;28;69447;-66
2021/09/01 01:39:01;;;;;;;7.68;6.72;;;;;;;14.67;70.09;101818.50;692702;28;22454;-66
2021/09/01 01:39:23;;;;;;;7.45;6.78;;;;;;;14.67;70.21;101819.38;692657;28;20862;-67
2021/09/01 01:39:44;;;;;;;7.80;7.00;;;;;;;14.68;70.18;101817.50;691684;28;46292;-69
2021/09/01 01:40:07;;;;;;;8.00;6.95;;;;;;;14.68;70.24;101815.63;692208;28;22393;-69
2021/09/01 01:40:29;;;;;;;7.82;6.70;;;;;;;14.69;70.50;101814.59;690977;28;70096;-66
2021/09/01 01:40:51;;;;;;;7.43;6.65;;;;;;;14.68;70.19;101812.06;691821;28;45302;-66
2021/09/01 01:41:13;;;;;;;7.32;6.60;;;;;;;14.65;70.47;101810.53;691658;28;45488;-66
2021/09/01 01:41:34;;;;;;;7.55;6.72;;;;;;;14.69;70.22;101814.59;692306;28;21761;-67
2021/09/01 01:41:55;;;;;;;8.73;6.63;;;;;;;14.68;70.28;101812.06;691493;28;45358;-66
2021/09/01 01:42:16;;;;;;;7.93;7.00;;;;;;;14.69;70.35;101811.88;691354;28;46394;-67
2021/09/01 01:42:39;;;;;;;8.27;7.07;;;;;;;14.70;70.25;101818.16;692582;28;23543;-67
2021/09/01 01:43:00;;;;;;;7.18;6.53;;;;;;;14.68;70.45;101809.34;690368;28;93381;-65
2021/09/01 01:43:21;;;;;;;7.53;6.82;;;;;;;14.69;70.45;101811.06;692526;28;21534;-67
2021/09/01 01:43:44;;;;;;;7.47;6.78;;;;;;;14.71;70.34;101814.44;692854;28;1335;-66
2021/09/01 01:44:06;;;;;;;7.63;6.90;;;;;;;14.71;70.17;101814.44;691160;28;67465;-67